sensor_id;sensor_type;location;lat;lon;timestamp;pressure;altitude;pressure_sealevel;temperature;humidity
37778;BME280;23615;51.506;7.678;2023-11-19T00:02:06;99379.19;;;10.34;100.00
37778;BME280;23615;51.506;7.678;2023-11-19T00:04:33;99381.41;;;10.37;100.00
37778;BME280;23615;51.506;7.678;2023-11-19T00:06:59;99365.13;;;10.39;100.00
37778;BME280;23615;51.506;7.678;2023-11-19T00:09:28;99361.44;;;10.40;100.00
37778;BME280;23615;51.506;7.678;2023-11-19T00:11:54;99354.47;;;10.39;100.00
37778;BME280;23615;51.506;7.678;2023-11-19T00:14:19;99357.25;;;10.44;100.00
37778;BME280;23615;51.506;7.678;2023-11-19T00:16:44;99351.34;;;10.42;100.00
37778;BME280;23615;51.506;7.678;2023-11-19T00:19:09;99350.63;;;10.46;100.00
37778;BME280;23615;51.506;7.678;2023-11-19T00:21:35;99353.72;;;10.55;100.00
37778;BME280;23615;51.506;7.678;2023-11-19T00:24:01;99355.41;;;10.61;100.00
37778;BME280;23615;51.506;7.678;2023-11-19T00:26:26;99371.78;;;10.65;100.00
37778;BME280;23615;51.506;7.678;2023-11-19T00:28:52;99381.75;;;10.58;100.00
37778;BME280;23615;51.506;7.678;2023-11-19T00:31:18;99372.41;;;10.72;100.00
37778;BME280;23615;51.506;7.678;2023-11-19T00:33:43;99353.97;;;10.70;100.00
37778;BME280;23615;51.506;7.678;2023-11-19T00:36:09;99360.72;;;10.73;100.00
37778;BME280;23615;51.506;7.678;2023-11-19T00:38:34;99371.38;;;10.73;100.00
37778;BME280;23615;51.506;7.678;2023-11-19T00:40:59;99362.56;;;10.72;100.00
37778;BME280;23615;51.506;7.678;2023-11-19T00:43:24;99379.56;;;10.83;100.00
37778;BME280;23615;51.506;7.678;2023-11-19T00:45:51;99366.34;;;10.76;100.00
37778;BME280;23615;51.506;7.678;2023-11-19T00:48:16;99362.88;;;10.93;100.00
37778;BME280;23615;51.506;7.678;2023-11-19T00:50:42;99356.19;;;10.90;100.00
37778;BME280;23615;51.506;7.678;2023-11-19T00:53:09;99357.13;;;10.84;100.00
37778;BME280;23615;51.506;7.678;2023-11-19T00:55:35;99366.63;;;10.92;100.00
37778;BME280;23615;51.506;7.678;2023-11-19T00:58:00;99358.94;;;10.95;100.00
37778;BME280;23615;51.506;7.678;2023-11-19T01:00:25;99354.97;;;10.98;100.00
37778;BME280;23615;51.506;7.678;2023-11-19T01:02:52;99343.81;;;11.01;100.00
37778;BME280;23615;51.506;7.678;2023-11-19T01:05:18;99340.34;;;11.00;100.00
37778;BME280;23615;51.506;7.678;2023-11-19T01:07:47;99338.56;;;11.06;100.00
37778;BME280;23615;51.506;7.678;2023-11-19T01:10:12;99339.69;;;11.10;100.00
37778;BME280;23615;51.506;7.678;2023-11-19T01:12:37;99340.16;;;11.07;100.00
37778;BME280;23615;51.506;7.678;2023-11-19T01:15:04;99332.41;;;11.05;100.00
37778;BME280;23615;51.506;7.678;2023-11-19T01:17:30;99340.56;;;11.15;100.00
37778;BME280;23615;51.506;7.678;2023-11-19T01:19:57;99336.63;;;11.18;100.00
37778;BME280;23615;51.506;7.678;2023-11-19T01:22:22;99331.28;;;11.18;100.00
37778;BME280;23615;51.506;7.678;2023-11-19T01:24:48;99334.47;;;11.20;100.00
37778;BME280;23615;51.506;7.678;2023-11-19T01:27:13;99336.91;;;11.21;100.00
37778;BME280;23615;51.506;7.678;2023-11-19T01:29:39;99330.34;;;11.29;100.00
37778;BME280;23615;51.506;7.678;2023-11-19T01:32:04;99338.69;;;11.33;100.00
37778;BME280;23615;51.506;7.678;2023-11-19T01:34:30;99342.31;;;11.43;100.00
37778;BME280;23615;51.506;7.678;2023-11-19T01:36:55;99339.66;;;11.43;100.00
37778;BME280;23615;51.506;7.678;2023-11-19T01:39:20;99342.09;;;11.45;100.00
37778;BME280;23615;51.506;7.678;2023-11-19T01:41:46;99346.19;;;11.52;100.00
37778;BME280;23615;51.506;7.678;2023-11-19T01:44:11;99343.09;;;11.60;100.00
37778;BME280;23615;51.506;7.678;2023-11-19T01:46:37;99342.03;;;11.61;100.00
37778;BME280;23615;51.506;7.678;2023-11-19T01:49:04;99340.19;;;11.62;100.00
37778;BME280;23615;51.506;7.678;2023-11-19T01:51:30;99329.25;;;11.63;100.00
37778;BME280;23615;51.506;7.678;2023-11-19T01:53:57;99319.03;;;11.60;100.00
37778;BME280;23615;51.506;7.678;2023-11-19T01:56:23;99314.84;;;11.65;100.00
37778;BME280;23615;51.506;7.678;2023-11-19T01:58:49;99311.72;;;11.73;100.00
37778;BME280;23615;51.506;7.678;2023-11-19T02:01:15;99297.88;;;11.76;100.00
37778;BME280;23615;51.506;7.678;2023-11-19T02:03:41;99310.44;;;11.75;100.00
37778;BME280;23615;51.506;7.678;2023-11-19T02:06:06;99309.88;;;11.73;100.00
37778;BME280;23615;51.506;7.678;2023-11-19T02:08:32;99311.97;;;11.71;100.00
37778;BME280;23615;51.506;7.678;2023-11-19T02:10:57;99300.22;;;11.72;100.00
37778;BME280;23615;51.506;7.678;2023-11-19T02:13:24;99297.25;;;11.69;100.00
37778;BME280;23615;51.506;7.678;2023-11-19T02:15:50;99275.28;;;11.67;100.00
37778;BME280;23615;51.506;7.678;2023-11-19T02:18:22;99293.28;;;11.71;100.00
37778;BME280;23615;51.506;7.678;2023-11-19T02:20:49;99295.84;;;11.66;100.00
37778;BME280;23615;51.506;7.678;2023-11-19T02:23:15;99300.09;;;11.62;100.00
37778;BME280;23615;51.506;7.678;2023-11-19T02:25:40;99291.84;;;11.63;100.00
37778;BME280;23615;51.506;7.678;2023-11-19T02:28:07;99290.94;;;11.58;100.00
37778;BME280;23615;51.506;7.678;2023-11-19T02:30:32;99289.41;;;11.62;100.00
37778;BME280;23615;51.506;7.678;2023-11-19T02:32:58;99303.78;;;11.56;100.00
37778;BME280;23615;51.506;7.678;2023-11-19T02:35:27;99298.97;;;11.58;100.00
37778;BME280;23615;51.506;7.678;2023-11-19T02:37:54;99293.09;;;11.56;100.00
37778;BME280;23615;51.506;7.678;2023-11-19T02:40:19;99298.72;;;11.59;100.00
37778;BME280;23615;51.506;7.678;2023-11-19T02:42:44;99285.16;;;11.66;100.00
37778;BME280;23615;51.506;7.678;2023-11-19T02:45:10;99274.31;;;11.73;100.00
37778;BME280;23615;51.506;7.678;2023-11-19T02:47:43;99264.94;;;11.70;100.00
37778;BME280;23615;51.506;7.678;2023-11-19T02:50:11;99285.81;;;11.73;100.00
37778;BME280;23615;51.506;7.678;2023-11-19T02:52:41;99282.91;;;11.75;100.00
37778;BME280;23615;51.506;7.678;2023-11-19T02:55:07;99262.69;;;11.84;100.00
37778;BME280;23615;51.506;7.678;2023-11-19T02:57:35;99273.47;;;11.89;100.00
37778;BME280;23615;51.506;7.678;2023-11-19T03:00:00;99267.63;;;11.92;100.00
37778;BME280;23615;51.506;7.678;2023-11-19T03:02:26;99268.94;;;11.89;100.00
37778;BME280;23615;51.506;7.678;2023-11-19T03:04:59;99277.19;;;11.88;100.00
37778;BME280;23615;51.506;7.678;2023-11-19T03:07:25;99266.25;;;11.89;100.00
37778;BME280;23615;51.506;7.678;2023-11-19T03:09:50;99268.31;;;11.82;100.00
37778;BME280;23615;51.506;7.678;2023-11-19T03:12:15;99260.94;;;11.94;100.00
37778;BME280;23615;51.506;7.678;2023-11-19T03:14:40;99267.09;;;11.95;100.00
37778;BME280;23615;51.506;7.678;2023-11-19T03:17:06;99264.50;;;12.00;100.00
37778;BME280;23615;51.506;7.678;2023-11-19T03:19:31;99267.47;;;12.04;100.00
37778;BME280;23615;51.506;7.678;2023-11-19T03:21:56;99254.41;;;12.07;100.00
37778;BME280;23615;51.506;7.678;2023-11-19T03:24:22;99266.28;;;12.16;100.00
37778;BME280;23615;51.506;7.678;2023-11-19T03:26:50;99250.97;;;12.12;100.00
37778;BME280;23615;51.506;7.678;2023-11-19T03:29:15;99253.41;;;12.13;100.00
37778;BME280;23615;51.506;7.678;2023-11-19T03:31:44;99249.22;;;12.22;100.00
37778;BME280;23615;51.506;7.678;2023-11-19T03:34:10;99233.72;;;12.24;100.00
37778;BME280;23615;51.506;7.678;2023-11-19T03:36:35;99217.69;;;12.29;100.00
37778;BME280;23615;51.506;7.678;2023-11-19T03:39:00;99219.88;;;12.32;100.00
37778;BME280;23615;51.506;7.678;2023-11-19T03:41:25;99231.94;;;12.35;100.00
37778;BME280;23615;51.506;7.678;2023-11-19T03:43:51;99229.78;;;12.32;100.00
37778;BME280;23615;51.506;7.678;2023-11-19T03:46:20;99243.22;;;12.37;100.00
37778;BME280;23615;51.506;7.678;2023-11-19T03:48:49;99254.09;;;12.30;100.00
37778;BME280;23615;51.506;7.678;2023-11-19T03:51:15;99246.69;;;12.38;100.00
37778;BME280;23615;51.506;7.678;2023-11-19T03:53:44;99253.63;;;12.38;100.00
37778;BME280;23615;51.506;7.678;2023-11-19T03:56:10;99242.66;;;12.35;100.00
37778;BME280;23615;51.506;7.678;2023-11-19T03:58:36;99257.41;;;12.43;100.00
37778;BME280;23615;51.506;7.678;2023-11-19T04:01:01;99244.81;;;12.38;100.00
37778;BME280;23615;51.506;7.678;2023-11-19T04:03:27;99248.56;;;12.37;100.00
37778;BME280;23615;51.506;7.678;2023-11-19T04:05:53;99263.00;;;12.36;100.00
37778;BME280;23615;51.506;7.678;2023-11-19T04:08:18;99265.69;;;12.41;100.00
37778;BME280;23615;51.506;7.678;2023-11-19T04:10:43;99267.31;;;12.42;100.00
37778;BME280;23615;51.506;7.678;2023-11-19T04:13:09;99279.59;;;12.38;100.00
37778;BME280;23615;51.506;7.678;2023-11-19T04:15:35;99274.25;;;12.38;100.00
37778;BME280;23615;51.506;7.678;2023-11-19T04:18:00;99260.00;;;12.32;100.00
37778;BME280;23615;51.506;7.678;2023-11-19T04:20:25;99247.41;;;12.28;100.00
37778;BME280;23615;51.506;7.678;2023-11-19T04:22:51;99258.34;;;12.26;100.00
37778;BME280;23615;51.506;7.678;2023-11-19T04:25:16;99267.69;;;12.24;100.00
37778;BME280;23615;51.506;7.678;2023-11-19T04:27:42;99267.75;;;12.29;100.00
37778;BME280;23615;51.506;7.678;2023-11-19T04:30:07;99263.69;;;12.26;100.00
37778;BME280;23615;51.506;7.678;2023-11-19T04:32:36;99263.59;;;12.16;100.00
37778;BME280;23615;51.506;7.678;2023-11-19T04:35:01;99258.25;;;12.16;100.00
37778;BME280;23615;51.506;7.678;2023-11-19T04:37:26;99266.31;;;12.21;100.00
37778;BME280;23615;51.506;7.678;2023-11-19T04:39:51;99262.56;;;12.22;100.00
37778;BME280;23615;51.506;7.678;2023-11-19T04:42:17;99254.56;;;12.22;100.00
37778;BME280;23615;51.506;7.678;2023-11-19T04:44:43;99257.94;;;12.13;100.00
37778;BME280;23615;51.506;7.678;2023-11-19T04:47:08;99254.56;;;12.22;100.00
37778;BME280;23615;51.506;7.678;2023-11-19T04:49:40;99259.88;;;12.17;100.00
37778;BME280;23615;51.506;7.678;2023-11-19T04:52:08;99261.16;;;12.15;100.00
37778;BME280;23615;51.506;7.678;2023-11-19T04:54:33;99253.41;;;12.13;100.00
37778;BME280;23615;51.506;7.678;2023-11-19T04:56:58;99267.56;;;12.14;100.00
37778;BME280;23615;51.506;7.678;2023-11-19T04:59:24;99258.75;;;12.13;100.00
37778;BME280;23615;51.506;7.678;2023-11-19T05:01:49;99265.22;;;12.17;100.00
37778;BME280;23615;51.506;7.678;2023-11-19T05:04:15;99270.81;;;12.16;100.00
37778;BME280;23615;51.506;7.678;2023-11-19T05:06:41;99279.31;;;12.13;100.00
37778;BME280;23615;51.506;7.678;2023-11-19T05:09:06;99269.97;;;12.10;100.00
37778;BME280;23615;51.506;7.678;2023-11-19T05:11:34;99263.50;;;12.06;100.00
37778;BME280;23615;51.506;7.678;2023-11-19T05:14:00;99266.16;;;12.06;100.00
37778;BME280;23615;51.506;7.678;2023-11-19T05:16:25;99282.69;;;12.03;100.00
37778;BME280;23615;51.506;7.678;2023-11-19T05:18:51;99275.47;;;12.04;100.00
37778;BME280;23615;51.506;7.678;2023-11-19T05:21:16;99254.78;;;11.94;100.00
37778;BME280;23615;51.506;7.678;2023-11-19T05:23:42;99257.28;;;12.01;100.00
37778;BME280;23615;51.506;7.678;2023-11-19T05:26:08;99266.66;;;12.03;100.00
37778;BME280;23615;51.506;7.678;2023-11-19T05:28:33;99264.25;;;12.02;100.00
37778;BME280;23615;51.506;7.678;2023-11-19T05:30:59;99273.38;;;12.06;100.00
37778;BME280;23615;51.506;7.678;2023-11-19T05:33:25;99268.59;;;12.08;100.00
37778;BME280;23615;51.506;7.678;2023-11-19T05:35:50;99257.81;;;12.03;100.00
37778;BME280;23615;51.506;7.678;2023-11-19T05:38:15;99266.41;;;12.05;100.00
37778;BME280;23615;51.506;7.678;2023-11-19T05:40:41;99266.84;;;11.96;100.00
37778;BME280;23615;51.506;7.678;2023-11-19T05:43:06;99265.59;;;12.04;100.00
37778;BME280;23615;51.506;7.678;2023-11-19T05:45:32;99275.13;;;11.95;100.00
37778;BME280;23615;51.506;7.678;2023-11-19T05:47:57;99270.13;;;12.04;100.00
37778;BME280;23615;51.506;7.678;2023-11-19T05:50:23;99283.50;;;12.04;100.00
37778;BME280;23615;51.506;7.678;2023-11-19T05:52:49;99273.56;;;11.99;100.00
37778;BME280;23615;51.506;7.678;2023-11-19T05:55:14;99277.34;;;12.03;100.00
37778;BME280;23615;51.506;7.678;2023-11-19T05:57:39;99262.13;;;12.04;100.00
37778;BME280;23615;51.506;7.678;2023-11-19T06:00:06;99252.47;;;12.03;100.00
37778;BME280;23615;51.506;7.678;2023-11-19T06:02:34;99255.69;;;11.99;100.00
37778;BME280;23615;51.506;7.678;2023-11-19T06:04:59;99261.03;;;11.99;100.00
37778;BME280;23615;51.506;7.678;2023-11-19T06:07:25;99244.97;;;11.99;100.00
37778;BME280;23615;51.506;7.678;2023-11-19T06:09:50;99268.97;;;11.94;100.00
37778;BME280;23615;51.506;7.678;2023-11-19T06:12:15;99253.59;;;12.07;100.00
37778;BME280;23615;51.506;7.678;2023-11-19T06:14:41;99261.63;;;12.07;100.00
37778;BME280;23615;51.506;7.678;2023-11-19T06:17:06;99258.47;;;12.10;100.00
37778;BME280;23615;51.506;7.678;2023-11-19T06:19:33;99266.72;;;12.08;100.00
37778;BME280;23615;51.506;7.678;2023-11-19T06:21:59;99265.44;;;12.11;100.00
37778;BME280;23615;51.506;7.678;2023-11-19T06:24:24;99257.66;;;12.09;100.00
37778;BME280;23615;51.506;7.678;2023-11-19T06:26:49;99276.97;;;12.16;100.00
37778;BME280;23615;51.506;7.678;2023-11-19T06:29:14;99265.94;;;12.13;100.00
37778;BME280;23615;51.506;7.678;2023-11-19T06:31:43;99287.66;;;12.16;100.00
37778;BME280;23615;51.506;7.678;2023-11-19T06:34:10;99294.56;;;12.12;100.00
37778;BME280;23615;51.506;7.678;2023-11-19T06:36:35;99292.16;;;12.11;100.00
37778;BME280;23615;51.506;7.678;2023-11-19T06:39:00;99304.91;;;12.04;100.00
37778;BME280;23615;51.506;7.678;2023-11-19T06:41:27;99299.50;;;11.98;100.00
37778;BME280;23615;51.506;7.678;2023-11-19T06:43:54;99303.47;;;11.96;100.00
37778;BME280;23615;51.506;7.678;2023-11-19T06:46:19;99293.91;;;12.00;100.00
37778;BME280;23615;51.506;7.678;2023-11-19T06:48:44;99295.94;;;11.93;100.00
37778;BME280;23615;51.506;7.678;2023-11-19T06:51:11;99285.25;;;11.93;100.00
37778;BME280;23615;51.506;7.678;2023-11-19T06:53:36;99273.72;;;11.87;100.00
37778;BME280;23615;51.506;7.678;2023-11-19T06:56:02;99284.97;;;11.89;100.00
37778;BME280;23615;51.506;7.678;2023-11-19T06:58:32;99293.28;;;11.93;100.00
37778;BME280;23615;51.506;7.678;2023-11-19T07:00:59;99296.22;;;11.91;100.00
37778;BME280;23615;51.506;7.678;2023-11-19T07:03:24;99311.50;;;11.96;100.00
37778;BME280;23615;51.506;7.678;2023-11-19T07:05:50;99318.72;;;11.95;100.00
37778;BME280;23615;51.506;7.678;2023-11-19T07:08:15;99317.41;;;11.98;100.00
37778;BME280;23615;51.506;7.678;2023-11-19T07:10:40;99322.50;;;11.99;100.00
37778;BME280;23615;51.506;7.678;2023-11-19T07:13:06;99328.84;;;11.93;100.00
37778;BME280;23615;51.506;7.678;2023-11-19T07:15:31;99332.63;;;11.97;100.00
37778;BME280;23615;51.506;7.678;2023-11-19T07:17:57;99333.69;;;11.96;100.00
37778;BME280;23615;51.506;7.678;2023-11-19T07:20:24;99335.63;;;12.01;100.00
37778;BME280;23615;51.506;7.678;2023-11-19T07:22:51;99331.13;;;11.85;100.00
37778;BME280;23615;51.506;7.678;2023-11-19T07:25:17;99333.19;;;11.78;100.00
37778;BME280;23615;51.506;7.678;2023-11-19T07:27:43;99324.50;;;11.87;100.00
37778;BME280;23615;51.506;7.678;2023-11-19T07:30:08;99338.19;;;11.91;100.00
37778;BME280;23615;51.506;7.678;2023-11-19T07:32:33;99343.44;;;11.86;100.00
37778;BME280;23615;51.506;7.678;2023-11-19T07:34:59;99333.06;;;11.89;100.00
37778;BME280;23615;51.506;7.678;2023-11-19T07:37:24;99344.81;;;11.88;100.00
37778;BME280;23615;51.506;7.678;2023-11-19T07:39:50;99347.00;;;11.91;100.00
37778;BME280;23615;51.506;7.678;2023-11-19T07:42:15;99348.34;;;11.94;100.00
37778;BME280;23615;51.506;7.678;2023-11-19T07:44:40;99348.44;;;11.99;100.00
37778;BME280;23615;51.506;7.678;2023-11-19T07:47:06;99351.84;;;11.94;100.00
37778;BME280;23615;51.506;7.678;2023-11-19T07:49:32;99367.63;;;11.96;100.00
37778;BME280;23615;51.506;7.678;2023-11-19T07:51:57;99373.53;;;11.98;100.00
37778;BME280;23615;51.506;7.678;2023-11-19T07:54:22;99364.34;;;11.89;100.00
37778;BME280;23615;51.506;7.678;2023-11-19T07:56:48;99359.56;;;11.91;100.00
37778;BME280;23615;51.506;7.678;2023-11-19T07:59:14;99363.03;;;11.91;100.00
37778;BME280;23615;51.506;7.678;2023-11-19T08:01:40;99368.13;;;11.93;100.00
37778;BME280;23615;51.506;7.678;2023-11-19T08:04:05;99376.66;;;11.90;100.00
37778;BME280;23615;51.506;7.678;2023-11-19T08:06:30;99360.19;;;11.98;100.00
37778;BME280;23615;51.506;7.678;2023-11-19T08:08:56;99370.78;;;11.93;100.00
37778;BME280;23615;51.506;7.678;2023-11-19T08:11:21;99373.47;;;11.93;100.00
37778;BME280;23615;51.506;7.678;2023-11-19T08:13:46;99369.06;;;11.82;100.00
37778;BME280;23615;51.506;7.678;2023-11-19T08:16:12;99378.72;;;11.83;100.00
37778;BME280;23615;51.506;7.678;2023-11-19T08:18:37;99383.53;;;11.86;100.00
37778;BME280;23615;51.506;7.678;2023-11-19T08:21:03;99383.78;;;11.84;100.00
37778;BME280;23615;51.506;7.678;2023-11-19T08:23:30;99373.09;;;11.84;100.00
37778;BME280;23615;51.506;7.678;2023-11-19T08:25:55;99384.91;;;11.88;100.00
37778;BME280;23615;51.506;7.678;2023-11-19T08:28:20;99383.63;;;11.91;100.00
37778;BME280;23615;51.506;7.678;2023-11-19T08:30:46;99382.81;;;11.90;100.00
37778;BME280;23615;51.506;7.678;2023-11-19T08:33:11;99380.94;;;11.91;100.00
37778;BME280;23615;51.506;7.678;2023-11-19T08:35:36;99382.25;;;11.72;100.00
37778;BME280;23615;51.506;7.678;2023-11-19T08:38:01;99378.75;;;11.88;100.00
37778;BME280;23615;51.506;7.678;2023-11-19T08:40:27;99394.00;;;11.87;100.00
37778;BME280;23615;51.506;7.678;2023-11-19T08:42:53;99392.75;;;11.95;100.00
37778;BME280;23615;51.506;7.678;2023-11-19T08:45:18;99391.06;;;11.89;100.00
37778;BME280;23615;51.506;7.678;2023-11-19T08:47:43;99403.38;;;11.90;100.00
37778;BME280;23615;51.506;7.678;2023-11-19T08:50:11;99392.31;;;11.81;100.00
37778;BME280;23615;51.506;7.678;2023-11-19T08:52:36;99411.84;;;11.82;100.00
37778;BME280;23615;51.506;7.678;2023-11-19T08:55:01;99395.22;;;11.80;100.00
37778;BME280;23615;51.506;7.678;2023-11-19T08:57:27;99403.31;;;11.85;100.00
37778;BME280;23615;51.506;7.678;2023-11-19T08:59:53;99402.25;;;11.86;100.00
37778;BME280;23615;51.506;7.678;2023-11-19T09:02:18;99407.03;;;11.84;100.00
37778;BME280;23615;51.506;7.678;2023-11-19T09:04:43;99399.00;;;11.84;100.00
37778;BME280;23615;51.506;7.678;2023-11-19T09:07:09;99411.06;;;11.86;100.00
37778;BME280;23615;51.506;7.678;2023-11-19T09:09:37;99398.03;;;11.90;100.00
37778;BME280;23615;51.506;7.678;2023-11-19T09:12:03;99397.03;;;11.96;100.00
37778;BME280;23615;51.506;7.678;2023-11-19T09:14:31;99392.25;;;11.98;100.00
37778;BME280;23615;51.506;7.678;2023-11-19T09:16:57;99386.00;;;12.09;100.00
37778;BME280;23615;51.506;7.678;2023-11-19T09:19:23;99392.63;;;12.07;100.00
37778;BME280;23615;51.506;7.678;2023-11-19T09:21:48;99396.97;;;12.13;100.00
37778;BME280;23615;51.506;7.678;2023-11-19T09:24:14;99406.06;;;12.12;99.75
37778;BME280;23615;51.506;7.678;2023-11-19T09:26:40;99395.94;;;12.14;99.61
37778;BME280;23615;51.506;7.678;2023-11-19T09:29:07;99406.13;;;12.17;99.87
37778;BME280;23615;51.506;7.678;2023-11-19T09:31:33;99406.06;;;12.12;99.54
37778;BME280;23615;51.506;7.678;2023-11-19T09:33:58;99415.69;;;12.13;99.57
37778;BME280;23615;51.506;7.678;2023-11-19T09:36:23;99400.72;;;12.12;99.50
37778;BME280;23615;51.506;7.678;2023-11-19T09:38:49;99395.34;;;12.12;99.25
37778;BME280;23615;51.506;7.678;2023-11-19T09:41:14;99394.31;;;12.13;98.61
37778;BME280;23615;51.506;7.678;2023-11-19T09:43:41;99395.94;;;12.14;99.45
37778;BME280;23615;51.506;7.678;2023-11-19T09:46:09;99397.09;;;12.23;98.56
37778;BME280;23615;51.506;7.678;2023-11-19T09:48:37;99395.25;;;12.23;98.05
37778;BME280;23615;51.506;7.678;2023-11-19T09:51:03;99403.25;;;12.23;98.94
37778;BME280;23615;51.506;7.678;2023-11-19T09:53:29;99397.63;;;12.20;98.54
37778;BME280;23615;51.506;7.678;2023-11-19T09:55:55;99402.78;;;12.26;98.32
37778;BME280;23615;51.506;7.678;2023-11-19T09:58:21;99401.03;;;12.15;98.29
37778;BME280;23615;51.506;7.678;2023-11-19T10:00:47;99405.88;;;12.18;98.28
37778;BME280;23615;51.506;7.678;2023-11-19T10:03:13;99395.81;;;12.25;98.01
37778;BME280;23615;51.506;7.678;2023-11-19T10:05:38;99394.63;;;12.38;97.42
37778;BME280;23615;51.506;7.678;2023-11-19T10:08:05;99399.47;;;12.41;96.81
37778;BME280;23615;51.506;7.678;2023-11-19T10:10:31;99396.97;;;12.34;96.47
37778;BME280;23615;51.506;7.678;2023-11-19T10:12:56;99391.97;;;12.38;96.80
37778;BME280;23615;51.506;7.678;2023-11-19T10:15:24;99403.75;;;12.42;95.97
37778;BME280;23615;51.506;7.678;2023-11-19T10:17:59;99384.72;;;12.38;95.90
37778;BME280;23615;51.506;7.678;2023-11-19T10:20:24;99389.78;;;12.35;95.83
37778;BME280;23615;51.506;7.678;2023-11-19T10:22:53;99390.06;;;12.38;96.56
37778;BME280;23615;51.506;7.678;2023-11-19T10:25:27;99381.63;;;12.47;96.16
37778;BME280;23615;51.506;7.678;2023-11-19T10:27:54;99382.16;;;12.49;95.26
37778;BME280;23615;51.506;7.678;2023-11-19T10:30:28;99375.28;;;12.58;95.63
37778;BME280;23615;51.506;7.678;2023-11-19T10:33:13;99371.16;;;12.72;94.91
37778;BME280;23615;51.506;7.678;2023-11-19T10:35:56;99374.44;;;12.79;95.03
37778;BME280;23615;51.506;7.678;2023-11-19T10:38:22;99373.72;;;12.89;94.95
37778;BME280;23615;51.506;7.678;2023-11-19T10:40:48;99369.03;;;12.74;93.95
37778;BME280;23615;51.506;7.678;2023-11-19T10:43:14;99363.94;;;12.72;94.08
37778;BME280;23615;51.506;7.678;2023-11-19T10:45:40;99365.84;;;12.77;94.33
37778;BME280;23615;51.506;7.678;2023-11-19T10:48:06;99370.69;;;12.80;93.75
37778;BME280;23615;51.506;7.678;2023-11-19T10:50:36;99346.81;;;12.73;93.57
37778;BME280;23615;51.506;7.678;2023-11-19T10:53:03;99370.63;;;12.75;94.11
37778;BME280;23615;51.506;7.678;2023-11-19T10:55:31;99368.63;;;12.87;94.46
37778;BME280;23615;51.506;7.678;2023-11-19T10:58:03;99363.81;;;12.89;92.97
37778;BME280;23615;51.506;7.678;2023-11-19T11:00:29;99358.38;;;12.79;94.22
37778;BME280;23615;51.506;7.678;2023-11-19T11:03:08;99359.41;;;12.73;93.54
37778;BME280;23615;51.506;7.678;2023-11-19T11:05:35;99369.47;;;12.66;94.31
37778;BME280;23615;51.506;7.678;2023-11-19T11:08:04;99356.66;;;12.68;94.08
37778;BME280;23615;51.506;7.678;2023-11-19T11:10:32;99358.28;;;12.69;94.27
37778;BME280;23615;51.506;7.678;2023-11-19T11:13:02;99360.66;;;12.65;93.90
37778;BME280;23615;51.506;7.678;2023-11-19T11:15:30;99365.72;;;12.62;93.71
37778;BME280;23615;51.506;7.678;2023-11-19T11:17:59;99357.13;;;12.60;94.12
37778;BME280;23615;51.506;7.678;2023-11-19T11:20:32;99345.34;;;12.61;93.92
37778;BME280;23615;51.506;7.678;2023-11-19T11:25:59;99355.66;;;12.74;94.05
37778;BME280;23615;51.506;7.678;2023-11-19T11:34:03;99368.34;;;12.84;93.16
37778;BME280;23615;51.506;7.678;2023-11-19T11:36:38;99364.22;;;12.76;92.88
37778;BME280;23615;51.506;7.678;2023-11-19T11:39:10;99363.72;;;12.79;92.41
37778;BME280;23615;51.506;7.678;2023-11-19T11:41:36;99372.00;;;12.78;92.68
37778;BME280;23615;51.506;7.678;2023-11-19T11:44:01;99375.38;;;12.68;92.97
37778;BME280;23615;51.506;7.678;2023-11-19T11:49:05;99368.50;;;12.77;93.48
37778;BME280;23615;51.506;7.678;2023-11-19T11:54:30;99351.41;;;12.78;93.46
37778;BME280;23615;51.506;7.678;2023-11-19T11:59:36;99351.63;;;12.71;93.18
37778;BME280;23615;51.506;7.678;2023-11-19T12:02:03;99344.19;;;12.79;93.29
37778;BME280;23615;51.506;7.678;2023-11-19T12:04:29;99335.34;;;12.78;93.41
37778;BME280;23615;51.506;7.678;2023-11-19T12:07:13;99340.19;;;12.81;92.77
37778;BME280;23615;51.506;7.678;2023-11-19T12:09:46;99337.53;;;12.86;92.40
37778;BME280;23615;51.506;7.678;2023-11-19T12:12:23;99323.31;;;12.81;93.44
37778;BME280;23615;51.506;7.678;2023-11-19T12:15:08;99313.28;;;12.98;93.72
37778;BME280;23615;51.506;7.678;2023-11-19T12:17:41;99322.97;;;13.04;91.73
37778;BME280;23615;51.506;7.678;2023-11-19T12:20:09;99318.72;;;13.08;91.46
37778;BME280;23615;51.506;7.678;2023-11-19T12:22:38;99328.56;;;13.02;91.05
37778;BME280;23615;51.506;7.678;2023-11-19T12:25:08;99328.06;;;13.05;90.63
37778;BME280;23615;51.506;7.678;2023-11-19T12:27:34;99325.84;;;12.92;90.27
37778;BME280;23615;51.506;7.678;2023-11-19T12:30:01;99342.47;;;12.99;90.17
37778;BME280;23615;51.506;7.678;2023-11-19T12:32:26;99324.22;;;12.91;90.92
37778;BME280;23615;51.506;7.678;2023-11-19T12:34:51;99311.41;;;12.98;89.92
37778;BME280;23615;51.506;7.678;2023-11-19T12:37:16;99296.97;;;12.99;89.42
37778;BME280;23615;51.506;7.678;2023-11-19T12:39:42;99321.06;;;12.99;88.79
37778;BME280;23615;51.506;7.678;2023-11-19T12:42:08;99309.00;;;13.02;89.33
37778;BME280;23615;51.506;7.678;2023-11-19T12:44:33;99325.63;;;12.99;90.23
37778;BME280;23615;51.506;7.678;2023-11-19T12:47:06;99315.72;;;13.04;89.79
37778;BME280;23615;51.506;7.678;2023-11-19T12:49:35;99303.97;;;13.05;89.68
37778;BME280;23615;51.506;7.678;2023-11-19T12:52:00;99306.63;;;13.00;89.17
37778;BME280;23615;51.506;7.678;2023-11-19T12:54:33;99307.13;;;12.97;88.77
37778;BME280;23615;51.506;7.678;2023-11-19T12:56:59;99302.59;;;13.03;90.23
37778;BME280;23615;51.506;7.678;2023-11-19T12:59:24;99304.25;;;13.09;90.21
37778;BME280;23615;51.506;7.678;2023-11-19T13:01:59;99292.44;;;13.05;90.79
37778;BME280;23615;51.506;7.678;2023-11-19T13:04:31;99295.66;;;13.07;90.28
37778;BME280;23615;51.506;7.678;2023-11-19T13:07:00;99285.22;;;13.05;90.40